Brushvale, Minnesota
Current Conditions -  °F | °C
As of 8:15 AM on Sunday 21 Dec 2014 (Local Time) from KBWP Reporting Station
Overcast Overcast  
Wind Chill: -5°   Ceiling: 700
Heat Index:   Visibility: 3mi
Dew Point: -2°   Wind: 13mph
Humidity: 87%   Direction: 160°SSE
Pressure: 29.75"   Gusts: NA
Location:  46.3422°N, 96.4653°W
Report Text: KBWP 211415Z AUTO 16011KT 3SM OVC007 00/M02 A2975 RMK AO1
Loading
Personal Weather Stations






























Interactive Weather Map New forecast layout! Learn more

10-Day Weather Forecast

Advertisements
Track Severe Weather on mobile